sensor_id;sensor_type;location;lat;lon;timestamp;P1;durP1;ratioP1;P2;durP2;ratioP2
50605;SDS011;36557;53.572;10.170;2023-04-03T00:02:08;7.20;;;1.33;;
50605;SDS011;36557;53.572;10.170;2023-04-03T00:04:34;3.72;;;1.30;;
50605;SDS011;36557;53.572;10.170;2023-04-03T00:07:00;5.38;;;1.55;;
50605;SDS011;36557;53.572;10.170;2023-04-03T00:09:26;5.22;;;1.30;;
50605;SDS011;36557;53.572;10.170;2023-04-03T00:11:52;5.68;;;1.40;;
50605;SDS011;36557;53.572;10.170;2023-04-03T00:14:18;5.75;;;1.67;;
50605;SDS011;36557;53.572;10.170;2023-04-03T00:16:44;4.35;;;1.70;;
50605;SDS011;36557;53.572;10.170;2023-04-03T00:19:10;6.68;;;1.95;;
50605;SDS011;36557;53.572;10.170;2023-04-03T00:21:37;7.03;;;2.20;;
50605;SDS011;36557;53.572;10.170;2023-04-03T00:24:03;7.65;;;2.22;;
50605;SDS011;36557;53.572;10.170;2023-04-03T00:26:30;7.72;;;2.70;;
50605;SDS011;36557;53.572;10.170;2023-04-03T00:28:56;7.35;;;2.35;;
50605;SDS011;36557;53.572;10.170;2023-04-03T00:31:22;8.93;;;1.88;;
50605;SDS011;36557;53.572;10.170;2023-04-03T00:33:48;7.00;;;2.30;;
50605;SDS011;36557;53.572;10.170;2023-04-03T00:36:14;6.53;;;2.00;;
50605;SDS011;36557;53.572;10.170;2023-04-03T00:38:40;5.68;;;1.90;;
50605;SDS011;36557;53.572;10.170;2023-04-03T00:41:07;5.63;;;1.70;;
50605;SDS011;36557;53.572;10.170;2023-04-03T00:43:33;5.47;;;1.60;;
50605;SDS011;36557;53.572;10.170;2023-04-03T00:45:59;5.97;;;1.90;;
50605;SDS011;36557;53.572;10.170;2023-04-03T00:48:27;5.72;;;1.85;;
50605;SDS011;36557;53.572;10.170;2023-04-03T00:50:54;7.32;;;2.20;;
50605;SDS011;36557;53.572;10.170;2023-04-03T00:53:23;4.28;;;1.85;;
50605;SDS011;36557;53.572;10.170;2023-04-03T00:55:51;4.30;;;1.95;;
50605;SDS011;36557;53.572;10.170;2023-04-03T00:58:19;5.80;;;1.77;;
50605;SDS011;36557;53.572;10.170;2023-04-03T01:00:48;5.57;;;2.00;;
50605;SDS011;36557;53.572;10.170;2023-04-03T01:03:18;6.15;;;1.90;;
50605;SDS011;36557;53.572;10.170;2023-04-03T01:05:45;8.02;;;1.98;;
50605;SDS011;36557;53.572;10.170;2023-04-03T01:08:11;4.40;;;1.48;;
50605;SDS011;36557;53.572;10.170;2023-04-03T01:10:37;8.45;;;2.40;;
50605;SDS011;36557;53.572;10.170;2023-04-03T01:13:17;6.90;;;1.70;;
50605;SDS011;36557;53.572;10.170;2023-04-03T01:15:43;4.78;;;1.42;;
50605;SDS011;36557;53.572;10.170;2023-04-03T01:18:09;5.13;;;1.65;;
50605;SDS011;36557;53.572;10.170;2023-04-03T01:25:29;5.35;;;1.58;;
50605;SDS011;36557;53.572;10.170;2023-04-03T01:27:55;5.65;;;1.60;;
50605;SDS011;36557;53.572;10.170;2023-04-03T01:30:21;4.72;;;1.60;;
50605;SDS011;36557;53.572;10.170;2023-04-03T01:32:50;4.82;;;2.05;;
50605;SDS011;36557;53.572;10.170;2023-04-03T01:35:16;5.10;;;1.58;;
50605;SDS011;36557;53.572;10.170;2023-04-03T01:37:42;7.10;;;1.75;;
50605;SDS011;36557;53.572;10.170;2023-04-03T01:40:08;7.07;;;1.83;;
50605;SDS011;36557;53.572;10.170;2023-04-03T01:42:34;6.75;;;1.50;;
50605;SDS011;36557;53.572;10.170;2023-04-03T01:45:00;5.72;;;1.88;;
50605;SDS011;36557;53.572;10.170;2023-04-03T01:47:26;4.68;;;1.70;;
50605;SDS011;36557;53.572;10.170;2023-04-03T01:49:52;6.20;;;1.40;;
50605;SDS011;36557;53.572;10.170;2023-04-03T01:52:18;3.97;;;1.80;;
50605;SDS011;36557;53.572;10.170;2023-04-03T01:54:44;3.40;;;1.52;;
50605;SDS011;36557;53.572;10.170;2023-04-03T01:57:10;5.38;;;1.50;;
50605;SDS011;36557;53.572;10.170;2023-04-03T01:59:38;7.30;;;1.60;;
50605;SDS011;36557;53.572;10.170;2023-04-03T02:02:04;5.38;;;1.63;;
50605;SDS011;36557;53.572;10.170;2023-04-03T02:04:30;5.28;;;1.50;;
50605;SDS011;36557;53.572;10.170;2023-04-03T02:06:57;5.00;;;1.20;;
50605;SDS011;36557;53.572;10.170;2023-04-03T02:09:23;3.13;;;1.85;;
50605;SDS011;36557;53.572;10.170;2023-04-03T02:11:49;9.32;;;1.88;;
50605;SDS011;36557;53.572;10.170;2023-04-03T02:14:15;4.55;;;1.45;;
50605;SDS011;36557;53.572;10.170;2023-04-03T02:16:41;8.32;;;1.73;;
50605;SDS011;36557;53.572;10.170;2023-04-03T02:19:07;7.55;;;1.50;;
50605;SDS011;36557;53.572;10.170;2023-04-03T02:21:33;4.70;;;1.70;;
50605;SDS011;36557;53.572;10.170;2023-04-03T02:24:00;7.78;;;1.67;;
50605;SDS011;36557;53.572;10.170;2023-04-03T02:26:26;4.32;;;1.42;;
50605;SDS011;36557;53.572;10.170;2023-04-03T02:28:52;7.43;;;2.33;;
50605;SDS011;36557;53.572;10.170;2023-04-03T02:31:18;7.78;;;2.15;;
50605;SDS011;36557;53.572;10.170;2023-04-03T02:33:44;2.92;;;1.33;;
50605;SDS011;36557;53.572;10.170;2023-04-03T02:36:10;3.42;;;1.30;;
50605;SDS011;36557;53.572;10.170;2023-04-03T02:38:36;4.32;;;1.50;;
50605;SDS011;36557;53.572;10.170;2023-04-03T02:41:03;7.00;;;1.40;;
50605;SDS011;36557;53.572;10.170;2023-04-03T02:43:30;5.18;;;1.70;;
50605;SDS011;36557;53.572;10.170;2023-04-03T02:45:56;6.10;;;1.60;;
50605;SDS011;36557;53.572;10.170;2023-04-03T02:48:22;8.63;;;1.88;;
50605;SDS011;36557;53.572;10.170;2023-04-03T02:50:48;6.93;;;1.40;;
50605;SDS011;36557;53.572;10.170;2023-04-03T02:53:15;4.70;;;1.58;;
50605;SDS011;36557;53.572;10.170;2023-04-03T02:55:41;5.15;;;1.38;;
50605;SDS011;36557;53.572;10.170;2023-04-03T02:58:07;7.75;;;1.83;;
50605;SDS011;36557;53.572;10.170;2023-04-03T03:00:33;6.40;;;1.42;;
50605;SDS011;36557;53.572;10.170;2023-04-03T03:02:59;6.03;;;1.83;;
50605;SDS011;36557;53.572;10.170;2023-04-03T03:05:26;5.05;;;1.88;;
50605;SDS011;36557;53.572;10.170;2023-04-03T03:07:52;3.17;;;1.50;;
50605;SDS011;36557;53.572;10.170;2023-04-03T03:10:18;7.75;;;1.98;;
50605;SDS011;36557;53.572;10.170;2023-04-03T03:12:44;7.78;;;1.73;;
50605;SDS011;36557;53.572;10.170;2023-04-03T03:15:10;4.63;;;1.60;;
50605;SDS011;36557;53.572;10.170;2023-04-03T03:17:37;5.15;;;1.55;;
50605;SDS011;36557;53.572;10.170;2023-04-03T03:20:03;8.63;;;2.15;;
50605;SDS011;36557;53.572;10.170;2023-04-03T03:22:30;4.10;;;1.70;;
50605;SDS011;36557;53.572;10.170;2023-04-03T03:24:56;5.85;;;1.90;;
50605;SDS011;36557;53.572;10.170;2023-04-03T03:27:22;5.65;;;2.15;;
50605;SDS011;36557;53.572;10.170;2023-04-03T03:29:49;7.47;;;2.30;;
50605;SDS011;36557;53.572;10.170;2023-04-03T03:32:15;7.60;;;2.10;;
50605;SDS011;36557;53.572;10.170;2023-04-03T03:34:41;3.65;;;1.75;;
50605;SDS011;36557;53.572;10.170;2023-04-03T03:37:07;5.63;;;2.38;;
50605;SDS011;36557;53.572;10.170;2023-04-03T03:39:33;4.43;;;2.33;;
50605;SDS011;36557;53.572;10.170;2023-04-03T03:41:59;5.65;;;2.50;;
50605;SDS011;36557;53.572;10.170;2023-04-03T03:44:25;5.15;;;2.60;;
50605;SDS011;36557;53.572;10.170;2023-04-03T03:46:54;4.03;;;2.30;;
50605;SDS011;36557;53.572;10.170;2023-04-03T03:49:20;4.95;;;2.55;;
50605;SDS011;36557;53.572;10.170;2023-04-03T03:51:46;6.07;;;2.22;;
50605;SDS011;36557;53.572;10.170;2023-04-03T03:54:12;9.88;;;2.75;;
50605;SDS011;36557;53.572;10.170;2023-04-03T03:56:39;5.32;;;2.35;;
50605;SDS011;36557;53.572;10.170;2023-04-03T03:59:05;6.97;;;2.72;;
50605;SDS011;36557;53.572;10.170;2023-04-03T04:01:31;4.57;;;2.90;;
50605;SDS011;36557;53.572;10.170;2023-04-03T04:03:57;4.45;;;2.13;;
50605;SDS011;36557;53.572;10.170;2023-04-03T04:06:23;5.95;;;2.45;;
50605;SDS011;36557;53.572;10.170;2023-04-03T04:08:50;7.38;;;2.30;;
50605;SDS011;36557;53.572;10.170;2023-04-03T04:11:16;7.50;;;2.70;;
50605;SDS011;36557;53.572;10.170;2023-04-03T04:13:42;7.43;;;2.55;;
50605;SDS011;36557;53.572;10.170;2023-04-03T04:16:08;6.38;;;2.53;;
50605;SDS011;36557;53.572;10.170;2023-04-03T04:18:34;5.00;;;2.47;;
50605;SDS011;36557;53.572;10.170;2023-04-03T04:21:01;5.65;;;2.67;;
50605;SDS011;36557;53.572;10.170;2023-04-03T04:23:27;10.93;;;5.75;;
50605;SDS011;36557;53.572;10.170;2023-04-03T04:25:53;10.10;;;6.63;;
50605;SDS011;36557;53.572;10.170;2023-04-03T04:28:19;7.72;;;2.97;;
50605;SDS011;36557;53.572;10.170;2023-04-03T04:30:45;4.60;;;2.38;;
50605;SDS011;36557;53.572;10.170;2023-04-03T04:33:11;5.50;;;2.60;;
50605;SDS011;36557;53.572;10.170;2023-04-03T04:35:39;4.57;;;2.30;;
50605;SDS011;36557;53.572;10.170;2023-04-03T04:38:05;7.43;;;2.75;;
50605;SDS011;36557;53.572;10.170;2023-04-03T04:40:33;7.05;;;2.20;;
50605;SDS011;36557;53.572;10.170;2023-04-03T04:42:59;5.43;;;2.72;;
50605;SDS011;36557;53.572;10.170;2023-04-03T04:45:25;5.32;;;2.20;;
50605;SDS011;36557;53.572;10.170;2023-04-03T04:47:53;4.22;;;1.95;;
50605;SDS011;36557;53.572;10.170;2023-04-03T04:50:20;7.63;;;2.83;;
50605;SDS011;36557;53.572;10.170;2023-04-03T04:52:46;4.53;;;2.28;;
50605;SDS011;36557;53.572;10.170;2023-04-03T04:55:12;6.72;;;2.88;;
50605;SDS011;36557;53.572;10.170;2023-04-03T04:57:38;7.75;;;2.72;;
50605;SDS011;36557;53.572;10.170;2023-04-03T05:00:04;5.47;;;2.50;;
50605;SDS011;36557;53.572;10.170;2023-04-03T05:02:30;9.20;;;2.85;;
50605;SDS011;36557;53.572;10.170;2023-04-03T05:04:57;7.57;;;5.25;;
50605;SDS011;36557;53.572;10.170;2023-04-03T05:07:24;8.90;;;4.70;;
50605;SDS011;36557;53.572;10.170;2023-04-03T05:09:50;9.30;;;4.25;;
50605;SDS011;36557;53.572;10.170;2023-04-03T05:12:16;12.10;;;5.15;;
50605;SDS011;36557;53.572;10.170;2023-04-03T05:14:42;7.22;;;3.95;;
50605;SDS011;36557;53.572;10.170;2023-04-03T05:17:08;10.00;;;6.10;;
50605;SDS011;36557;53.572;10.170;2023-04-03T05:19:35;11.30;;;5.85;;
50605;SDS011;36557;53.572;10.170;2023-04-03T05:22:01;14.82;;;6.47;;
50605;SDS011;36557;53.572;10.170;2023-04-03T05:24:27;10.52;;;5.65;;
50605;SDS011;36557;53.572;10.170;2023-04-03T05:26:53;11.85;;;5.45;;
50605;SDS011;36557;53.572;10.170;2023-04-03T05:29:20;7.78;;;4.75;;
50605;SDS011;36557;53.572;10.170;2023-04-03T05:31:48;10.80;;;4.22;;
50605;SDS011;36557;53.572;10.170;2023-04-03T05:34:15;9.23;;;2.60;;
50605;SDS011;36557;53.572;10.170;2023-04-03T05:36:41;8.82;;;3.50;;
50605;SDS011;36557;53.572;10.170;2023-04-03T05:39:08;4.88;;;2.47;;
50605;SDS011;36557;53.572;10.170;2023-04-03T05:41:34;9.85;;;2.67;;
50605;SDS011;36557;53.572;10.170;2023-04-03T05:44:00;9.80;;;3.63;;
50605;SDS011;36557;53.572;10.170;2023-04-03T05:46:26;8.38;;;2.80;;
50605;SDS011;36557;53.572;10.170;2023-04-03T05:48:52;11.23;;;4.50;;
50605;SDS011;36557;53.572;10.170;2023-04-03T05:51:19;6.53;;;2.88;;
50605;SDS011;36557;53.572;10.170;2023-04-03T05:53:45;6.93;;;2.55;;
50605;SDS011;36557;53.572;10.170;2023-04-03T05:56:12;7.63;;;2.65;;
50605;SDS011;36557;53.572;10.170;2023-04-03T05:58:39;8.57;;;2.38;;
50605;SDS011;36557;53.572;10.170;2023-04-03T06:01:05;6.32;;;2.58;;
50605;SDS011;36557;53.572;10.170;2023-04-03T06:03:31;6.50;;;2.40;;
50605;SDS011;36557;53.572;10.170;2023-04-03T06:05:57;6.25;;;2.97;;
50605;SDS011;36557;53.572;10.170;2023-04-03T06:08:23;4.97;;;2.25;;
50605;SDS011;36557;53.572;10.170;2023-04-03T06:10:49;5.72;;;2.35;;
50605;SDS011;36557;53.572;10.170;2023-04-03T06:13:16;8.45;;;1.92;;
50605;SDS011;36557;53.572;10.170;2023-04-03T06:15:42;4.25;;;2.10;;
50605;SDS011;36557;53.572;10.170;2023-04-03T06:18:09;8.25;;;2.33;;
50605;SDS011;36557;53.572;10.170;2023-04-03T06:20:35;6.15;;;1.83;;
50605;SDS011;36557;53.572;10.170;2023-04-03T06:23:01;3.85;;;1.70;;
50605;SDS011;36557;53.572;10.170;2023-04-03T06:25:27;6.13;;;2.05;;
50605;SDS011;36557;53.572;10.170;2023-04-03T06:27:53;4.18;;;2.15;;
50605;SDS011;36557;53.572;10.170;2023-04-03T06:30:20;7.72;;;2.40;;
50605;SDS011;36557;53.572;10.170;2023-04-03T06:32:46;8.32;;;2.33;;
50605;SDS011;36557;53.572;10.170;2023-04-03T06:35:12;9.40;;;2.25;;
50605;SDS011;36557;53.572;10.170;2023-04-03T06:37:38;6.97;;;2.05;;
50605;SDS011;36557;53.572;10.170;2023-04-03T06:40:05;4.03;;;1.83;;
50605;SDS011;36557;53.572;10.170;2023-04-03T06:42:31;6.38;;;1.95;;
50605;SDS011;36557;53.572;10.170;2023-04-03T06:44:57;7.93;;;1.80;;
50605;SDS011;36557;53.572;10.170;2023-04-03T06:47:23;4.30;;;1.70;;
50605;SDS011;36557;53.572;10.170;2023-04-03T06:49:49;6.35;;;1.88;;
50605;SDS011;36557;53.572;10.170;2023-04-03T06:52:15;3.75;;;1.80;;
50605;SDS011;36557;53.572;10.170;2023-04-03T06:54:42;6.30;;;1.60;;
50605;SDS011;36557;53.572;10.170;2023-04-03T06:57:08;5.82;;;1.80;;
50605;SDS011;36557;53.572;10.170;2023-04-03T06:59:34;9.50;;;1.85;;
50605;SDS011;36557;53.572;10.170;2023-04-03T07:02:01;5.72;;;1.85;;
50605;SDS011;36557;53.572;10.170;2023-04-03T07:04:27;4.50;;;1.35;;
50605;SDS011;36557;53.572;10.170;2023-04-03T07:06:53;6.28;;;1.33;;
50605;SDS011;36557;53.572;10.170;2023-04-03T07:09:18;6.22;;;1.48;;
50605;SDS011;36557;53.572;10.170;2023-04-03T07:11:44;5.93;;;1.40;;
50605;SDS011;36557;53.572;10.170;2023-04-03T07:14:10;3.78;;;1.38;;
50605;SDS011;36557;53.572;10.170;2023-04-03T07:16:36;6.75;;;1.60;;
50605;SDS011;36557;53.572;10.170;2023-04-03T07:19:02;6.20;;;1.70;;
50605;SDS011;36557;53.572;10.170;2023-04-03T07:21:28;3.65;;;1.60;;
50605;SDS011;36557;53.572;10.170;2023-04-03T07:23:54;10.15;;;1.95;;
50605;SDS011;36557;53.572;10.170;2023-04-03T07:26:21;2.72;;;1.25;;
50605;SDS011;36557;53.572;10.170;2023-04-03T07:31:14;3.95;;;1.40;;
50605;SDS011;36557;53.572;10.170;2023-04-03T07:33:42;3.33;;;1.35;;
50605;SDS011;36557;53.572;10.170;2023-04-03T07:36:09;7.28;;;1.50;;
50605;SDS011;36557;53.572;10.170;2023-04-03T07:45:53;8.57;;;1.52;;
50605;SDS011;36557;53.572;10.170;2023-04-03T07:48:23;3.60;;;1.13;;
50605;SDS011;36557;53.572;10.170;2023-04-03T07:50:50;3.13;;;0.93;;
50605;SDS011;36557;53.572;10.170;2023-04-03T07:53:16;4.00;;;1.10;;
50605;SDS011;36557;53.572;10.170;2023-04-03T07:55:42;5.18;;;1.48;;
50605;SDS011;36557;53.572;10.170;2023-04-03T07:58:16;5.80;;;1.10;;
50605;SDS011;36557;53.572;10.170;2023-04-03T08:00:44;3.58;;;1.02;;
50605;SDS011;36557;53.572;10.170;2023-04-03T08:03:11;3.95;;;1.20;;
50605;SDS011;36557;53.572;10.170;2023-04-03T08:05:38;7.50;;;1.20;;
50605;SDS011;36557;53.572;10.170;2023-04-03T08:08:06;2.53;;;0.70;;
50605;SDS011;36557;53.572;10.170;2023-04-03T08:10:32;2.92;;;0.93;;
50605;SDS011;36557;53.572;10.170;2023-04-03T08:12:58;2.70;;;0.63;;
50605;SDS011;36557;53.572;10.170;2023-04-03T08:15:25;2.33;;;0.70;;
50605;SDS011;36557;53.572;10.170;2023-04-03T08:17:51;3.08;;;1.00;;
50605;SDS011;36557;53.572;10.170;2023-04-03T08:20:17;2.92;;;0.85;;
50605;SDS011;36557;53.572;10.170;2023-04-03T08:22:43;2.28;;;0.63;;
50605;SDS011;36557;53.572;10.170;2023-04-03T08:25:09;2.25;;;0.77;;
50605;SDS011;36557;53.572;10.170;2023-04-03T08:27:35;2.35;;;0.63;;
50605;SDS011;36557;53.572;10.170;2023-04-03T08:30:00;4.18;;;0.80;;
50605;SDS011;36557;53.572;10.170;2023-04-03T08:32:26;3.03;;;1.05;;
50605;SDS011;36557;53.572;10.170;2023-04-03T08:34:53;3.38;;;0.90;;
50605;SDS011;36557;53.572;10.170;2023-04-03T08:37:18;4.30;;;0.95;;
50605;SDS011;36557;53.572;10.170;2023-04-03T08:39:44;2.42;;;1.10;;
50605;SDS011;36557;53.572;10.170;2023-04-03T08:42:34;1.88;;;0.80;;
50605;SDS011;36557;53.572;10.170;2023-04-03T08:45:31;2.83;;;0.57;;
50605;SDS011;36557;53.572;10.170;2023-04-03T08:48:13;3.35;;;0.70;;
50605;SDS011;36557;53.572;10.170;2023-04-03T08:50:47;1.83;;;0.90;;
50605;SDS011;36557;53.572;10.170;2023-04-03T08:53:25;2.90;;;0.68;;
50605;SDS011;36557;53.572;10.170;2023-04-03T08:55:57;2.05;;;0.80;;
50605;SDS011;36557;53.572;10.170;2023-04-03T08:58:28;4.20;;;0.98;;
50605;SDS011;36557;53.572;10.170;2023-04-03T09:01:00;2.53;;;0.60;;
50605;SDS011;36557;53.572;10.170;2023-04-03T09:03:30;1.67;;;0.65;;
50605;SDS011;36557;53.572;10.170;2023-04-03T09:06:14;1.52;;;0.50;;
50605;SDS011;36557;53.572;10.170;2023-04-03T09:17:03;3.63;;;0.80;;
50605;SDS011;36557;53.572;10.170;2023-04-03T09:19:44;4.65;;;0.65;;
50605;SDS011;36557;53.572;10.170;2023-04-03T09:22:25;1.63;;;0.70;;
50605;SDS011;36557;53.572;10.170;2023-04-03T09:27:37;3.47;;;0.88;;
50605;SDS011;36557;53.572;10.170;2023-04-03T09:30:03;2.72;;;0.70;;
50605;SDS011;36557;53.572;10.170;2023-04-03T09:32:35;2.20;;;0.63;;
50605;SDS011;36557;53.572;10.170;2023-04-03T09:35:16;2.47;;;0.50;;
50605;SDS011;36557;53.572;10.170;2023-04-03T09:38:00;2.58;;;0.73;;
50605;SDS011;36557;53.572;10.170;2023-04-03T09:40:36;1.55;;;0.60;;
50605;SDS011;36557;53.572;10.170;2023-04-03T09:45:49;1.77;;;0.65;;
50605;SDS011;36557;53.572;10.170;2023-04-03T09:48:17;1.23;;;0.60;;
50605;SDS011;36557;53.572;10.170;2023-04-03T09:53:32;3.30;;;0.77;;
50605;SDS011;36557;53.572;10.170;2023-04-03T09:56:19;2.83;;;0.65;;
50605;SDS011;36557;53.572;10.170;2023-04-03T09:58:48;1.50;;;0.70;;
50605;SDS011;36557;53.572;10.170;2023-04-03T10:01:33;3.17;;;0.63;;
50605;SDS011;36557;53.572;10.170;2023-04-03T10:04:12;1.75;;;0.60;;
50605;SDS011;36557;53.572;10.170;2023-04-03T10:06:42;1.42;;;0.80;;
50605;SDS011;36557;53.572;10.170;2023-04-03T10:09:19;4.45;;;0.88;;
50605;SDS011;36557;53.572;10.170;2023-04-03T10:14:26;1.95;;;0.90;;
50605;SDS011;36557;53.572;10.170;2023-04-03T10:19:53;2.25;;;0.65;;
50605;SDS011;36557;53.572;10.170;2023-04-03T10:25:41;1.30;;;0.70;;
50605;SDS011;36557;53.572;10.170;2023-04-03T10:36:16;2.45;;;0.65;;
50605;SDS011;36557;53.572;10.170;2023-04-03T10:38:51;1.35;;;0.65;;
50605;SDS011;36557;53.572;10.170;2023-04-03T10:41:34;3.10;;;0.70;;
50605;SDS011;36557;53.572;10.170;2023-04-03T10:44:29;2.75;;;0.73;;
50605;SDS011;36557;53.572;10.170;2023-04-03T10:47:20;2.13;;;0.63;;
50605;SDS011;36557;53.572;10.170;2023-04-03T10:50:06;2.67;;;0.70;;
50605;SDS011;36557;53.572;10.170;2023-04-03T10:55:34;2.35;;;0.93;;
50605;SDS011;36557;53.572;10.170;2023-04-03T10:58:10;3.03;;;0.98;;
50605;SDS011;36557;53.572;10.170;2023-04-03T11:00:47;2.22;;;0.73;;
50605;SDS011;36557;53.572;10.170;2023-04-03T11:03:35;3.08;;;0.90;;
50605;SDS011;36557;53.572;10.170;2023-04-03T11:06:06;3.15;;;0.80;;
50605;SDS011;36557;53.572;10.170;2023-04-03T11:11:32;4.30;;;1.00;;
50605;SDS011;36557;53.572;10.170;2023-04-03T11:14:05;2.95;;;0.73;;
50605;SDS011;36557;53.572;10.170;2023-04-03T11:16:45;1.70;;;0.77;;
50605;SDS011;36557;53.572;10.170;2023-04-03T11:19:20;1.88;;;0.80;;
50605;SDS011;36557;53.572;10.170;2023-04-03T11:21:56;3.58;;;0.88;;
50605;SDS011;36557;53.572;10.170;2023-04-03T11:24:27;2.80;;;0.75;;
50605;SDS011;36557;53.572;10.170;2023-04-03T11:26:56;1.77;;;0.65;;
50605;SDS011;36557;53.572;10.170;2023-04-03T11:29:26;1.83;;;0.70;;
50605;SDS011;36557;53.572;10.170;2023-04-03T11:34:56;2.83;;;0.82;;
50605;SDS011;36557;53.572;10.170;2023-04-03T11:37:35;1.10;;;0.60;;
50605;SDS011;36557;53.572;10.170;2023-04-03T11:40:08;2.88;;;0.68;;
50605;SDS011;36557;53.572;10.170;2023-04-03T11:42:48;2.78;;;0.75;;
50605;SDS011;36557;53.572;10.170;2023-04-03T11:47:52;1.53;;;0.67;;
50605;SDS011;36557;53.572;10.170;2023-04-03T12:05:51;2.60;;;0.90;;
50605;SDS011;36557;53.572;10.170;2023-04-03T12:08:43;2.97;;;0.70;;
50605;SDS011;36557;53.572;10.170;2023-04-03T12:13:37;4.22;;;0.98;;
50605;SDS011;36557;53.572;10.170;2023-04-03T12:19:04;2.10;;;0.80;;
50605;SDS011;36557;53.572;10.170;2023-04-03T12:24:26;2.95;;;0.60;;
50605;SDS011;36557;53.572;10.170;2023-04-03T12:29:34;2.33;;;0.70;;
50605;SDS011;36557;53.572;10.170;2023-04-03T12:43:41;2.25;;;0.60;;
50605;SDS011;36557;53.572;10.170;2023-04-03T12:46:45;3.05;;;1.05;;
50605;SDS011;36557;53.572;10.170;2023-04-03T12:51:55;1.55;;;0.60;;
50605;SDS011;36557;53.572;10.170;2023-04-03T12:54:31;2.72;;;1.23;;
50605;SDS011;36557;53.572;10.170;2023-04-03T12:57:11;1.48;;;0.73;;
50605;SDS011;36557;53.572;10.170;2023-04-03T12:59:43;1.65;;;0.60;;
50605;SDS011;36557;53.572;10.170;2023-04-03T13:02:21;3.00;;;0.88;;
50605;SDS011;36557;53.572;10.170;2023-04-03T13:04:53;2.45;;;0.77;;
50605;SDS011;36557;53.572;10.170;2023-04-03T13:09:57;2.85;;;0.80;;
50605;SDS011;36557;53.572;10.170;2023-04-03T13:12:28;2.95;;;0.80;;
50605;SDS011;36557;53.572;10.170;2023-04-03T13:14:54;2.92;;;0.82;;
50605;SDS011;36557;53.572;10.170;2023-04-03T13:17:23;2.30;;;0.85;;
50605;SDS011;36557;53.572;10.170;2023-04-03T13:19:49;2.95;;;0.75;;
50605;SDS011;36557;53.572;10.170;2023-04-03T13:24:42;2.00;;;0.60;;
50605;SDS011;36557;53.572;10.170;2023-04-03T13:27:10;1.80;;;0.60;;
50605;SDS011;36557;53.572;10.170;2023-04-03T13:29:37;1.48;;;0.77;;
50605;SDS011;36557;53.572;10.170;2023-04-03T13:32:04;2.15;;;0.60;;
50605;SDS011;36557;53.572;10.170;2023-04-03T13:34:38;2.10;;;0.80;;
50605;SDS011;36557;53.572;10.170;2023-04-03T13:37:11;2.30;;;1.10;;
50605;SDS011;36557;53.572;10.170;2023-04-03T13:39:45;1.42;;;0.65;;
50605;SDS011;36557;53.572;10.170;2023-04-03T13:42:24;2.58;;;0.75;;
50605;SDS011;36557;53.572;10.170;2023-04-03T13:45:06;1.48;;;0.43;;
50605;SDS011;36557;53.572;10.170;2023-04-03T13:47:39;2.15;;;0.73;;
50605;SDS011;36557;53.572;10.170;2023-04-03T13:52:46;1.63;;;0.77;;
50605;SDS011;36557;53.572;10.170;2023-04-03T13:55:34;2.38;;;0.70;;
50605;SDS011;36557;53.572;10.170;2023-04-03T14:00:49;2.55;;;0.90;;
50605;SDS011;36557;53.572;10.170;2023-04-03T14:08:33;4.03;;;0.90;;
50605;SDS011;36557;53.572;10.170;2023-04-03T14:10:59;3.28;;;0.80;;
50605;SDS011;36557;53.572;10.170;2023-04-03T14:13:26;2.67;;;0.82;;
50605;SDS011;36557;53.572;10.170;2023-04-03T14:15:51;3.63;;;1.40;;
50605;SDS011;36557;53.572;10.170;2023-04-03T14:18:18;2.30;;;0.70;;
50605;SDS011;36557;53.572;10.170;2023-04-03T14:20:45;3.17;;;0.70;;
50605;SDS011;36557;53.572;10.170;2023-04-03T14:23:11;2.50;;;0.70;;
50605;SDS011;36557;53.572;10.170;2023-04-03T14:25:38;4.68;;;1.48;;
50605;SDS011;36557;53.572;10.170;2023-04-03T14:28:12;2.40;;;0.85;;
50605;SDS011;36557;53.572;10.170;2023-04-03T14:30:41;1.75;;;0.70;;
50605;SDS011;36557;53.572;10.170;2023-04-03T14:33:10;3.10;;;0.80;;
50605;SDS011;36557;53.572;10.170;2023-04-03T14:35:40;1.38;;;0.73;;
50605;SDS011;36557;53.572;10.170;2023-04-03T14:40:47;2.35;;;0.80;;
50605;SDS011;36557;53.572;10.170;2023-04-03T14:43:12;1.42;;;0.70;;
50605;SDS011;36557;53.572;10.170;2023-04-03T14:45:38;2.67;;;0.70;;
50605;SDS011;36557;53.572;10.170;2023-04-03T14:48:04;1.60;;;0.68;;
50605;SDS011;36557;53.572;10.170;2023-04-03T14:50:34;1.50;;;0.70;;
50605;SDS011;36557;53.572;10.170;2023-04-03T14:53:00;3.10;;;0.80;;
50605;SDS011;36557;53.572;10.170;2023-04-03T14:55:26;1.58;;;0.70;;
50605;SDS011;36557;53.572;10.170;2023-04-03T14:57:52;2.97;;;1.08;;
50605;SDS011;36557;53.572;10.170;2023-04-03T15:00:20;1.45;;;0.65;;
50605;SDS011;36557;53.572;10.170;2023-04-03T15:02:46;2.35;;;0.60;;
50605;SDS011;36557;53.572;10.170;2023-04-03T15:05:12;1.92;;;0.60;;
50605;SDS011;36557;53.572;10.170;2023-04-03T15:07:40;1.40;;;0.60;;
50605;SDS011;36557;53.572;10.170;2023-04-03T15:12:44;3.53;;;0.90;;
50605;SDS011;36557;53.572;10.170;2023-04-03T15:15:11;2.80;;;0.70;;
50605;SDS011;36557;53.572;10.170;2023-04-03T15:17:37;3.08;;;0.90;;
50605;SDS011;36557;53.572;10.170;2023-04-03T15:20:05;2.30;;;0.90;;
50605;SDS011;36557;53.572;10.170;2023-04-03T15:22:39;2.30;;;0.93;;
50605;SDS011;36557;53.572;10.170;2023-04-03T15:25:05;3.10;;;0.80;;
50605;SDS011;36557;53.572;10.170;2023-04-03T15:27:31;3.70;;;0.93;;
50605;SDS011;36557;53.572;10.170;2023-04-03T15:29:56;3.97;;;1.27;;
50605;SDS011;36557;53.572;10.170;2023-04-03T15:32:22;2.95;;;1.05;;
50605;SDS011;36557;53.572;10.170;2023-04-03T15:34:48;4.10;;;1.00;;
50605;SDS011;36557;53.572;10.170;2023-04-03T15:37:13;4.85;;;1.02;;
50605;SDS011;36557;53.572;10.170;2023-04-03T15:39:39;2.45;;;1.10;;
50605;SDS011;36557;53.572;10.170;2023-04-03T15:42:05;3.08;;;1.15;;
50605;SDS011;36557;53.572;10.170;2023-04-03T15:44:31;2.17;;;0.80;;
50605;SDS011;36557;53.572;10.170;2023-04-03T15:47:00;3.58;;;1.13;;
50605;SDS011;36557;53.572;10.170;2023-04-03T15:49:27;2.83;;;0.90;;
50605;SDS011;36557;53.572;10.170;2023-04-03T15:51:53;2.78;;;0.80;;
50605;SDS011;36557;53.572;10.170;2023-04-03T15:54:19;2.85;;;1.50;;
50605;SDS011;36557;53.572;10.170;2023-04-03T15:56:44;2.83;;;0.93;;
50605;SDS011;36557;53.572;10.170;2023-04-03T15:59:10;3.75;;;1.08;;
50605;SDS011;36557;53.572;10.170;2023-04-03T16:01:36;1.52;;;0.70;;
50605;SDS011;36557;53.572;10.170;2023-04-03T16:04:04;3.40;;;1.08;;
50605;SDS011;36557;53.572;10.170;2023-04-03T16:06:32;3.65;;;1.10;;
50605;SDS011;36557;53.572;10.170;2023-04-03T16:08:58;2.33;;;0.90;;
50605;SDS011;36557;53.572;10.170;2023-04-03T16:11:25;2.45;;;1.05;;
50605;SDS011;36557;53.572;10.170;2023-04-03T16:13:52;4.70;;;0.82;;
50605;SDS011;36557;53.572;10.170;2023-04-03T16:16:18;2.63;;;0.88;;
50605;SDS011;36557;53.572;10.170;2023-04-03T16:18:45;5.75;;;0.85;;
50605;SDS011;36557;53.572;10.170;2023-04-03T16:21:12;1.90;;;0.70;;
50605;SDS011;36557;53.572;10.170;2023-04-03T16:23:40;3.95;;;1.10;;
50605;SDS011;36557;53.572;10.170;2023-04-03T16:26:06;2.25;;;1.10;;
50605;SDS011;36557;53.572;10.170;2023-04-03T16:28:32;5.57;;;1.60;;
50605;SDS011;36557;53.572;10.170;2023-04-03T16:30:58;5.13;;;1.05;;
50605;SDS011;36557;53.572;10.170;2023-04-03T16:33:26;3.35;;;1.08;;
50605;SDS011;36557;53.572;10.170;2023-04-03T16:35:52;2.75;;;1.10;;
50605;SDS011;36557;53.572;10.170;2023-04-03T16:38:18;3.88;;;1.10;;
50605;SDS011;36557;53.572;10.170;2023-04-03T16:40:44;2.75;;;0.88;;
50605;SDS011;36557;53.572;10.170;2023-04-03T16:43:10;2.50;;;0.70;;